sensor_id;sensor_type;location;lat;lon;timestamp;P1;durP1;ratioP1;P2;durP2;ratioP2
3405;SDS011;10008;48.682;9.016;2023-02-28T00:00:28;13.73;;;12.53;;
3405;SDS011;10008;48.682;9.016;2023-02-28T00:02:53;14.23;;;13.03;;
3405;SDS011;10008;48.682;9.016;2023-02-28T00:05:20;14.20;;;13.00;;
3405;SDS011;10008;48.682;9.016;2023-02-28T00:07:48;13.47;;;12.27;;
3405;SDS011;10008;48.682;9.016;2023-02-28T00:10:18;15.00;;;13.60;;
3405;SDS011;10008;48.682;9.016;2023-02-28T00:12:48;14.60;;;13.30;;
3405;SDS011;10008;48.682;9.016;2023-02-28T00:15:18;14.60;;;13.30;;
3405;SDS011;10008;48.682;9.016;2023-02-28T00:17:44;14.20;;;12.90;;
3405;SDS011;10008;48.682;9.016;2023-02-28T00:20:10;13.90;;;12.57;;
3405;SDS011;10008;48.682;9.016;2023-02-28T00:22:39;14.57;;;13.27;;
3405;SDS011;10008;48.682;9.016;2023-02-28T00:25:10;13.63;;;12.43;;
3405;SDS011;10008;48.682;9.016;2023-02-28T00:27:37;13.60;;;12.40;;
3405;SDS011;10008;48.682;9.016;2023-02-28T00:30:04;13.80;;;12.57;;
3405;SDS011;10008;48.682;9.016;2023-02-28T00:32:31;14.80;;;13.50;;
3405;SDS011;10008;48.682;9.016;2023-02-28T00:34:57;14.23;;;13.03;;
3405;SDS011;10008;48.682;9.016;2023-02-28T00:37:23;14.40;;;13.00;;
3405;SDS011;10008;48.682;9.016;2023-02-28T00:39:48;13.87;;;12.23;;
3405;SDS011;10008;48.682;9.016;2023-02-28T00:42:14;14.10;;;12.80;;
3405;SDS011;10008;48.682;9.016;2023-02-28T00:44:40;13.90;;;12.70;;
3405;SDS011;10008;48.682;9.016;2023-02-28T00:47:06;13.47;;;12.27;;
3405;SDS011;10008;48.682;9.016;2023-02-28T00:49:32;13.17;;;11.87;;
3405;SDS011;10008;48.682;9.016;2023-02-28T00:51:58;13.47;;;12.23;;
3405;SDS011;10008;48.682;9.016;2023-02-28T00:54:25;13.43;;;12.23;;
3405;SDS011;10008;48.682;9.016;2023-02-28T00:56:51;13.57;;;12.33;;
3405;SDS011;10008;48.682;9.016;2023-02-28T00:59:17;13.70;;;12.40;;
3405;SDS011;10008;48.682;9.016;2023-02-28T01:01:44;13.13;;;11.93;;
3405;SDS011;10008;48.682;9.016;2023-02-28T01:04:10;13.83;;;12.53;;
3405;SDS011;10008;48.682;9.016;2023-02-28T01:06:37;13.40;;;12.20;;
3405;SDS011;10008;48.682;9.016;2023-02-28T01:09:03;13.43;;;12.13;;
3405;SDS011;10008;48.682;9.016;2023-02-28T01:11:30;13.20;;;11.97;;
3405;SDS011;10008;48.682;9.016;2023-02-28T01:13:57;12.53;;;11.33;;
3405;SDS011;10008;48.682;9.016;2023-02-28T01:16:23;12.27;;;11.13;;
3405;SDS011;10008;48.682;9.016;2023-02-28T01:18:49;13.20;;;12.00;;
3405;SDS011;10008;48.682;9.016;2023-02-28T01:21:17;12.53;;;11.43;;
3405;SDS011;10008;48.682;9.016;2023-02-28T01:23:44;12.70;;;11.50;;
3405;SDS011;10008;48.682;9.016;2023-02-28T01:26:12;14.30;;;11.53;;
3405;SDS011;10008;48.682;9.016;2023-02-28T01:28:40;12.87;;;11.77;;
3405;SDS011;10008;48.682;9.016;2023-02-28T01:31:06;13.00;;;11.80;;
3405;SDS011;10008;48.682;9.016;2023-02-28T01:33:33;12.90;;;11.80;;
3405;SDS011;10008;48.682;9.016;2023-02-28T01:36:03;13.43;;;12.17;;
3405;SDS011;10008;48.682;9.016;2023-02-28T01:38:30;13.27;;;12.07;;
3405;SDS011;10008;48.682;9.016;2023-02-28T01:40:56;12.87;;;11.57;;
3405;SDS011;10008;48.682;9.016;2023-02-28T01:43:23;12.80;;;11.60;;
3405;SDS011;10008;48.682;9.016;2023-02-28T01:45:54;12.70;;;11.40;;
3405;SDS011;10008;48.682;9.016;2023-02-28T01:48:25;13.43;;;12.03;;
3405;SDS011;10008;48.682;9.016;2023-02-28T01:50:57;12.43;;;11.43;;
3405;SDS011;10008;48.682;9.016;2023-02-28T01:53:29;13.30;;;12.10;;
3405;SDS011;10008;48.682;9.016;2023-02-28T01:55:59;13.30;;;12.10;;
3405;SDS011;10008;48.682;9.016;2023-02-28T01:58:28;13.40;;;12.20;;
3405;SDS011;10008;48.682;9.016;2023-02-28T02:00:55;13.87;;;12.47;;
3405;SDS011;10008;48.682;9.016;2023-02-28T02:03:22;13.17;;;11.97;;
3405;SDS011;10008;48.682;9.016;2023-02-28T02:05:49;13.10;;;11.80;;
3405;SDS011;10008;48.682;9.016;2023-02-28T02:08:17;12.70;;;11.60;;
3405;SDS011;10008;48.682;9.016;2023-02-28T02:10:50;12.60;;;11.40;;
3405;SDS011;10008;48.682;9.016;2023-02-28T02:13:31;12.43;;;11.20;;
3405;SDS011;10008;48.682;9.016;2023-02-28T02:19:14;12.83;;;11.63;;
3405;SDS011;10008;48.682;9.016;2023-02-28T02:28:28;12.20;;;11.10;;
3405;SDS011;10008;48.682;9.016;2023-02-28T02:33:23;11.97;;;10.80;;
3405;SDS011;10008;48.682;9.016;2023-02-28T02:41:34;11.90;;;10.73;;
3405;SDS011;10008;48.682;9.016;2023-02-28T02:44:21;11.97;;;10.77;;
3405;SDS011;10008;48.682;9.016;2023-02-28T02:46:55;12.03;;;10.80;;
3405;SDS011;10008;48.682;9.016;2023-02-28T02:49:28;12.07;;;10.87;;
3405;SDS011;10008;48.682;9.016;2023-02-28T02:51:57;12.87;;;11.47;;
3405;SDS011;10008;48.682;9.016;2023-02-28T02:54:33;12.93;;;11.33;;
3405;SDS011;10008;48.682;9.016;2023-02-28T02:57:05;13.07;;;10.80;;
3405;SDS011;10008;48.682;9.016;2023-02-28T02:59:34;12.90;;;11.60;;
3405;SDS011;10008;48.682;9.016;2023-02-28T03:02:03;12.47;;;11.27;;
3405;SDS011;10008;48.682;9.016;2023-02-28T03:04:33;12.50;;;11.20;;
3405;SDS011;10008;48.682;9.016;2023-02-28T03:07:05;11.47;;;10.30;;
3405;SDS011;10008;48.682;9.016;2023-02-28T03:09:32;12.73;;;11.53;;
3405;SDS011;10008;48.682;9.016;2023-02-28T03:12:00;13.30;;;11.90;;
3405;SDS011;10008;48.682;9.016;2023-02-28T03:22:29;12.67;;;11.37;;
3405;SDS011;10008;48.682;9.016;2023-02-28T03:30:47;13.50;;;12.10;;
3405;SDS011;10008;48.682;9.016;2023-02-28T03:33:26;12.53;;;11.30;;
3405;SDS011;10008;48.682;9.016;2023-02-28T03:36:01;12.87;;;11.27;;
3405;SDS011;10008;48.682;9.016;2023-02-28T03:38:34;12.47;;;11.27;;
3405;SDS011;10008;48.682;9.016;2023-02-28T03:41:09;13.20;;;11.80;;
3405;SDS011;10008;48.682;9.016;2023-02-28T03:44:02;12.40;;;11.20;;
3405;SDS011;10008;48.682;9.016;2023-02-28T03:47:00;12.60;;;11.43;;
3405;SDS011;10008;48.682;9.016;2023-02-28T03:49:53;12.77;;;11.17;;
3405;SDS011;10008;48.682;9.016;2023-02-28T03:52:44;13.57;;;11.37;;
3405;SDS011;10008;48.682;9.016;2023-02-28T03:55:16;12.83;;;11.53;;
3405;SDS011;10008;48.682;9.016;2023-02-28T03:57:45;13.27;;;11.90;;
3405;SDS011;10008;48.682;9.016;2023-02-28T04:00:30;12.47;;;11.17;;
3405;SDS011;10008;48.682;9.016;2023-02-28T04:03:00;12.37;;;11.10;;
3405;SDS011;10008;48.682;9.016;2023-02-28T04:05:26;16.60;;;13.53;;
3405;SDS011;10008;48.682;9.016;2023-02-28T04:07:52;12.40;;;11.10;;
3405;SDS011;10008;48.682;9.016;2023-02-28T04:10:19;12.37;;;11.17;;
3405;SDS011;10008;48.682;9.016;2023-02-28T04:12:45;12.70;;;11.20;;
3405;SDS011;10008;48.682;9.016;2023-02-28T04:15:10;12.57;;;10.70;;
3405;SDS011;10008;48.682;9.016;2023-02-28T04:17:36;13.13;;;10.70;;
3405;SDS011;10008;48.682;9.016;2023-02-28T04:20:03;13.60;;;10.60;;
3405;SDS011;10008;48.682;9.016;2023-02-28T04:22:34;13.60;;;11.20;;
3405;SDS011;10008;48.682;9.016;2023-02-28T04:25:00;13.27;;;11.40;;
3405;SDS011;10008;48.682;9.016;2023-02-28T04:27:26;14.10;;;11.37;;
3405;SDS011;10008;48.682;9.016;2023-02-28T04:29:51;13.00;;;11.00;;
3405;SDS011;10008;48.682;9.016;2023-02-28T04:32:17;13.13;;;11.43;;
3405;SDS011;10008;48.682;9.016;2023-02-28T04:34:43;12.50;;;10.73;;
3405;SDS011;10008;48.682;9.016;2023-02-28T04:37:08;14.70;;;11.67;;
3405;SDS011;10008;48.682;9.016;2023-02-28T04:39:35;12.40;;;11.10;;
3405;SDS011;10008;48.682;9.016;2023-02-28T04:42:01;12.43;;;11.13;;
3405;SDS011;10008;48.682;9.016;2023-02-28T04:44:28;17.10;;;11.37;;
3405;SDS011;10008;48.682;9.016;2023-02-28T04:46:53;13.53;;;11.40;;
3405;SDS011;10008;48.682;9.016;2023-02-28T04:49:19;13.47;;;12.03;;
3405;SDS011;10008;48.682;9.016;2023-02-28T04:51:45;13.30;;;11.27;;
3405;SDS011;10008;48.682;9.016;2023-02-28T04:54:10;14.10;;;11.40;;
3405;SDS011;10008;48.682;9.016;2023-02-28T04:56:36;13.97;;;11.60;;
3405;SDS011;10008;48.682;9.016;2023-02-28T04:59:02;13.53;;;11.93;;
3405;SDS011;10008;48.682;9.016;2023-02-28T05:01:30;13.33;;;11.83;;
3405;SDS011;10008;48.682;9.016;2023-02-28T05:03:58;13.27;;;11.90;;
3405;SDS011;10008;48.682;9.016;2023-02-28T05:06:27;13.73;;;12.23;;
3405;SDS011;10008;48.682;9.016;2023-02-28T05:08:55;13.20;;;11.80;;
3405;SDS011;10008;48.682;9.016;2023-02-28T05:11:25;13.60;;;12.20;;
3405;SDS011;10008;48.682;9.016;2023-02-28T05:14:03;14.10;;;12.47;;
3405;SDS011;10008;48.682;9.016;2023-02-28T05:16:30;14.20;;;12.60;;
3405;SDS011;10008;48.682;9.016;2023-02-28T05:18:56;14.40;;;12.30;;
3405;SDS011;10008;48.682;9.016;2023-02-28T05:21:27;14.37;;;12.67;;
3405;SDS011;10008;48.682;9.016;2023-02-28T05:23:59;14.37;;;12.47;;
3405;SDS011;10008;48.682;9.016;2023-02-28T05:26:26;14.83;;;11.63;;
3405;SDS011;10008;48.682;9.016;2023-02-28T05:28:53;13.53;;;11.80;;
3405;SDS011;10008;48.682;9.016;2023-02-28T05:31:19;13.47;;;11.37;;
3405;SDS011;10008;48.682;9.016;2023-02-28T05:33:44;13.83;;;12.03;;
3405;SDS011;10008;48.682;9.016;2023-02-28T05:36:10;14.10;;;12.60;;
3405;SDS011;10008;48.682;9.016;2023-02-28T05:38:36;16.10;;;12.80;;
3405;SDS011;10008;48.682;9.016;2023-02-28T05:41:08;14.47;;;12.03;;
3405;SDS011;10008;48.682;9.016;2023-02-28T05:43:36;13.97;;;12.47;;
3405;SDS011;10008;48.682;9.016;2023-02-28T05:46:09;13.20;;;11.23;;
3405;SDS011;10008;48.682;9.016;2023-02-28T05:48:36;14.03;;;12.10;;
3405;SDS011;10008;48.682;9.016;2023-02-28T05:51:03;15.80;;;11.97;;
3405;SDS011;10008;48.682;9.016;2023-02-28T05:53:30;15.87;;;13.00;;
3405;SDS011;10008;48.682;9.016;2023-02-28T05:55:56;15.37;;;12.13;;
3405;SDS011;10008;48.682;9.016;2023-02-28T05:58:22;16.43;;;12.70;;
3405;SDS011;10008;48.682;9.016;2023-02-28T06:00:48;15.93;;;12.30;;
3405;SDS011;10008;48.682;9.016;2023-02-28T06:03:14;14.03;;;12.07;;
3405;SDS011;10008;48.682;9.016;2023-02-28T06:05:40;14.27;;;12.70;;
3405;SDS011;10008;48.682;9.016;2023-02-28T06:08:05;14.33;;;11.57;;
3405;SDS011;10008;48.682;9.016;2023-02-28T06:10:32;13.17;;;11.73;;
3405;SDS011;10008;48.682;9.016;2023-02-28T06:13:00;14.33;;;12.83;;
3405;SDS011;10008;48.682;9.016;2023-02-28T06:15:27;14.73;;;11.57;;
3405;SDS011;10008;48.682;9.016;2023-02-28T06:17:53;14.90;;;11.87;;
3405;SDS011;10008;48.682;9.016;2023-02-28T06:20:21;16.20;;;12.37;;
3405;SDS011;10008;48.682;9.016;2023-02-28T06:22:48;14.67;;;11.30;;
3405;SDS011;10008;48.682;9.016;2023-02-28T06:25:15;17.90;;;11.80;;
3405;SDS011;10008;48.682;9.016;2023-02-28T06:27:41;14.63;;;11.80;;
3405;SDS011;10008;48.682;9.016;2023-02-28T06:30:08;15.33;;;11.20;;
3405;SDS011;10008;48.682;9.016;2023-02-28T06:32:36;16.93;;;11.90;;
3405;SDS011;10008;48.682;9.016;2023-02-28T06:35:02;17.67;;;12.97;;
3405;SDS011;10008;48.682;9.016;2023-02-28T06:37:30;17.90;;;12.50;;
3405;SDS011;10008;48.682;9.016;2023-02-28T06:39:56;15.33;;;12.00;;
3405;SDS011;10008;48.682;9.016;2023-02-28T06:42:22;15.00;;;11.77;;
3405;SDS011;10008;48.682;9.016;2023-02-28T06:44:57;17.60;;;12.67;;
3405;SDS011;10008;48.682;9.016;2023-02-28T06:47:23;16.40;;;12.60;;
3405;SDS011;10008;48.682;9.016;2023-02-28T06:49:49;16.53;;;11.60;;
3405;SDS011;10008;48.682;9.016;2023-02-28T06:52:15;16.03;;;12.60;;
3405;SDS011;10008;48.682;9.016;2023-02-28T06:54:41;22.43;;;13.20;;
3405;SDS011;10008;48.682;9.016;2023-02-28T06:57:07;17.60;;;13.50;;
3405;SDS011;10008;48.682;9.016;2023-02-28T06:59:33;15.67;;;11.97;;
3405;SDS011;10008;48.682;9.016;2023-02-28T07:02:00;16.00;;;13.93;;
3405;SDS011;10008;48.682;9.016;2023-02-28T07:04:27;17.70;;;14.67;;
3405;SDS011;10008;48.682;9.016;2023-02-28T07:06:53;17.37;;;14.40;;
3405;SDS011;10008;48.682;9.016;2023-02-28T07:09:21;16.30;;;12.97;;
3405;SDS011;10008;48.682;9.016;2023-02-28T07:11:48;17.13;;;14.50;;
3405;SDS011;10008;48.682;9.016;2023-02-28T07:14:14;18.40;;;14.60;;
3405;SDS011;10008;48.682;9.016;2023-02-28T07:16:40;17.50;;;14.03;;
3405;SDS011;10008;48.682;9.016;2023-02-28T07:19:05;17.63;;;13.90;;
3405;SDS011;10008;48.682;9.016;2023-02-28T07:21:31;17.77;;;14.03;;
3405;SDS011;10008;48.682;9.016;2023-02-28T07:23:57;18.30;;;13.00;;
3405;SDS011;10008;48.682;9.016;2023-02-28T07:26:23;17.40;;;13.90;;
3405;SDS011;10008;48.682;9.016;2023-02-28T07:28:49;16.37;;;14.30;;
3405;SDS011;10008;48.682;9.016;2023-02-28T07:31:15;16.40;;;14.50;;
3405;SDS011;10008;48.682;9.016;2023-02-28T07:33:42;16.60;;;14.70;;
3405;SDS011;10008;48.682;9.016;2023-02-28T07:36:09;19.50;;;15.13;;
3405;SDS011;10008;48.682;9.016;2023-02-28T07:38:40;18.93;;;15.57;;
3405;SDS011;10008;48.682;9.016;2023-02-28T07:41:07;17.70;;;15.57;;
3405;SDS011;10008;48.682;9.016;2023-02-28T07:43:33;18.00;;;15.13;;
3405;SDS011;10008;48.682;9.016;2023-02-28T07:46:07;18.23;;;15.50;;
3405;SDS011;10008;48.682;9.016;2023-02-28T07:48:35;20.40;;;16.40;;
3405;SDS011;10008;48.682;9.016;2023-02-28T07:51:01;17.80;;;15.10;;
3405;SDS011;10008;48.682;9.016;2023-02-28T07:53:28;16.67;;;14.80;;
3405;SDS011;10008;48.682;9.016;2023-02-28T07:55:54;18.83;;;16.80;;
3405;SDS011;10008;48.682;9.016;2023-02-28T07:58:21;18.03;;;16.10;;
3405;SDS011;10008;48.682;9.016;2023-02-28T08:00:47;19.77;;;17.17;;
3405;SDS011;10008;48.682;9.016;2023-02-28T08:03:13;19.13;;;16.90;;
3405;SDS011;10008;48.682;9.016;2023-02-28T08:05:41;18.10;;;16.20;;
3405;SDS011;10008;48.682;9.016;2023-02-28T08:08:07;26.53;;;16.67;;
3405;SDS011;10008;48.682;9.016;2023-02-28T08:10:33;19.43;;;17.33;;
3405;SDS011;10008;48.682;9.016;2023-02-28T08:12:59;19.73;;;17.30;;
3405;SDS011;10008;48.682;9.016;2023-02-28T08:15:25;21.00;;;17.00;;
3405;SDS011;10008;48.682;9.016;2023-02-28T08:17:51;20.10;;;16.90;;
3405;SDS011;10008;48.682;9.016;2023-02-28T08:20:17;19.40;;;16.83;;
3405;SDS011;10008;48.682;9.016;2023-02-28T08:22:43;18.87;;;16.87;;
3405;SDS011;10008;48.682;9.016;2023-02-28T08:25:08;19.17;;;17.10;;
3405;SDS011;10008;48.682;9.016;2023-02-28T08:27:35;21.03;;;18.00;;
3405;SDS011;10008;48.682;9.016;2023-02-28T08:30:01;19.33;;;16.97;;
3405;SDS011;10008;48.682;9.016;2023-02-28T08:32:28;19.77;;;17.17;;
3405;SDS011;10008;48.682;9.016;2023-02-28T08:34:54;19.60;;;17.50;;
3405;SDS011;10008;48.682;9.016;2023-02-28T08:37:19;20.00;;;17.90;;
3405;SDS011;10008;48.682;9.016;2023-02-28T08:39:45;20.70;;;17.87;;
3405;SDS011;10008;48.682;9.016;2023-02-28T08:42:11;19.30;;;17.17;;
3405;SDS011;10008;48.682;9.016;2023-02-28T08:44:37;19.67;;;17.57;;
3405;SDS011;10008;48.682;9.016;2023-02-28T08:47:02;23.30;;;19.13;;
3405;SDS011;10008;48.682;9.016;2023-02-28T08:49:28;21.50;;;18.40;;
3405;SDS011;10008;48.682;9.016;2023-02-28T08:51:54;20.97;;;18.60;;
3405;SDS011;10008;48.682;9.016;2023-02-28T08:54:22;21.27;;;18.23;;
3405;SDS011;10008;48.682;9.016;2023-02-28T08:56:48;23.10;;;18.10;;
3405;SDS011;10008;48.682;9.016;2023-02-28T08:59:14;20.20;;;17.90;;
3405;SDS011;10008;48.682;9.016;2023-02-28T09:01:40;22.50;;;19.90;;
3405;SDS011;10008;48.682;9.016;2023-02-28T09:04:06;21.13;;;18.70;;
3405;SDS011;10008;48.682;9.016;2023-02-28T09:06:33;20.60;;;18.40;;
3405;SDS011;10008;48.682;9.016;2023-02-28T09:08:59;21.17;;;18.93;;
3405;SDS011;10008;48.682;9.016;2023-02-28T09:11:26;22.00;;;19.60;;
3405;SDS011;10008;48.682;9.016;2023-02-28T09:13:53;20.77;;;18.47;;
3405;SDS011;10008;48.682;9.016;2023-02-28T09:16:20;20.60;;;18.40;;
3405;SDS011;10008;48.682;9.016;2023-02-28T09:18:47;21.87;;;19.37;;
3405;SDS011;10008;48.682;9.016;2023-02-28T09:21:14;19.77;;;17.67;;
3405;SDS011;10008;48.682;9.016;2023-02-28T09:23:41;21.00;;;18.83;;
3405;SDS011;10008;48.682;9.016;2023-02-28T09:26:16;22.33;;;18.80;;
3405;SDS011;10008;48.682;9.016;2023-02-28T09:28:44;21.60;;;19.03;;
3405;SDS011;10008;48.682;9.016;2023-02-28T09:31:12;22.37;;;19.70;;
3405;SDS011;10008;48.682;9.016;2023-02-28T09:33:46;19.97;;;17.87;;
3405;SDS011;10008;48.682;9.016;2023-02-28T09:36:12;21.97;;;18.93;;
3405;SDS011;10008;48.682;9.016;2023-02-28T09:38:38;22.27;;;19.43;;
3405;SDS011;10008;48.682;9.016;2023-02-28T09:41:10;20.70;;;18.50;;
3405;SDS011;10008;48.682;9.016;2023-02-28T09:43:43;21.40;;;19.17;;
3405;SDS011;10008;48.682;9.016;2023-02-28T09:46:25;19.67;;;17.67;;
3405;SDS011;10008;48.682;9.016;2023-02-28T09:49:02;20.80;;;18.60;;
3405;SDS011;10008;48.682;9.016;2023-02-28T09:51:34;20.87;;;18.67;;
3405;SDS011;10008;48.682;9.016;2023-02-28T09:54:10;18.77;;;14.00;;
3405;SDS011;10008;48.682;9.016;2023-02-28T09:56:44;20.30;;;18.20;;
3405;SDS011;10008;48.682;9.016;2023-02-28T10:02:21;21.17;;;18.90;;
3405;SDS011;10008;48.682;9.016;2023-02-28T10:05:12;21.23;;;18.90;;
3405;SDS011;10008;48.682;9.016;2023-02-28T10:10:53;22.17;;;19.40;;
3405;SDS011;10008;48.682;9.016;2023-02-28T10:13:25;21.17;;;18.90;;
3405;SDS011;10008;48.682;9.016;2023-02-28T10:16:05;19.77;;;17.77;;
3405;SDS011;10008;48.682;9.016;2023-02-28T10:18:51;22.03;;;19.67;;
3405;SDS011;10008;48.682;9.016;2023-02-28T10:22:14;20.83;;;18.63;;
3405;SDS011;10008;48.682;9.016;2023-02-28T10:24:55;23.73;;;19.53;;
3405;SDS011;10008;48.682;9.016;2023-02-28T10:27:17;21.20;;;18.90;;
3405;SDS011;10008;48.682;9.016;2023-02-28T10:29:55;27.13;;;20.93;;
3405;SDS011;10008;48.682;9.016;2023-02-28T10:32:23;20.80;;;18.60;;
3405;SDS011;10008;48.682;9.016;2023-02-28T10:37:38;22.73;;;19.27;;
3405;SDS011;10008;48.682;9.016;2023-02-28T10:40:06;20.50;;;18.40;;
3405;SDS011;10008;48.682;9.016;2023-02-28T10:45:29;21.93;;;19.63;;
3405;SDS011;10008;48.682;9.016;2023-02-28T10:47:58;21.83;;;19.20;;
3405;SDS011;10008;48.682;9.016;2023-02-28T10:50:37;21.40;;;19.20;;
3405;SDS011;10008;48.682;9.016;2023-02-28T10:55:44;22.50;;;20.10;;
3405;SDS011;10008;48.682;9.016;2023-02-28T10:58:23;22.53;;;20.30;;
3405;SDS011;10008;48.682;9.016;2023-02-28T11:00:50;21.93;;;19.40;;
3405;SDS011;10008;48.682;9.016;2023-02-28T11:03:30;22.40;;;20.10;;
3405;SDS011;10008;48.682;9.016;2023-02-28T11:05:58;22.23;;;19.87;;
3405;SDS011;10008;48.682;9.016;2023-02-28T11:08:29;23.60;;;20.00;;
3405;SDS011;10008;48.682;9.016;2023-02-28T11:10:59;22.70;;;20.40;;
3405;SDS011;10008;48.682;9.016;2023-02-28T11:13:33;26.10;;;20.67;;
3405;SDS011;10008;48.682;9.016;2023-02-28T11:16:02;24.00;;;21.17;;
3405;SDS011;10008;48.682;9.016;2023-02-28T11:18:33;22.67;;;20.00;;
3405;SDS011;10008;48.682;9.016;2023-02-28T11:21:05;22.83;;;20.27;;
3405;SDS011;10008;48.682;9.016;2023-02-28T11:23:33;22.73;;;20.43;;
3405;SDS011;10008;48.682;9.016;2023-02-28T11:26:01;23.07;;;20.60;;
3405;SDS011;10008;48.682;9.016;2023-02-28T11:28:37;22.73;;;20.53;;
3405;SDS011;10008;48.682;9.016;2023-02-28T11:31:08;23.13;;;20.40;;
3405;SDS011;10008;48.682;9.016;2023-02-28T11:33:45;21.60;;;19.50;;
3405;SDS011;10008;48.682;9.016;2023-02-28T11:36:25;22.90;;;20.23;;
3405;SDS011;10008;48.682;9.016;2023-02-28T11:38:58;21.83;;;19.70;;
3405;SDS011;10008;48.682;9.016;2023-02-28T11:46:20;24.33;;;22.10;;
3405;SDS011;10008;48.682;9.016;2023-02-28T11:51:58;23.83;;;21.63;;
3405;SDS011;10008;48.682;9.016;2023-02-28T12:00:39;22.53;;;20.43;;
3405;SDS011;10008;48.682;9.016;2023-02-28T12:03:01;23.23;;;20.93;;
3405;SDS011;10008;48.682;9.016;2023-02-28T12:05:44;24.80;;;22.30;;
3405;SDS011;10008;48.682;9.016;2023-02-28T12:13:21;23.97;;;21.83;;
3405;SDS011;10008;48.682;9.016;2023-02-28T12:18:44;24.60;;;22.10;;
3405;SDS011;10008;48.682;9.016;2023-02-28T12:26:47;24.70;;;22.30;;
3405;SDS011;10008;48.682;9.016;2023-02-28T12:31:53;24.30;;;21.80;;
3405;SDS011;10008;48.682;9.016;2023-02-28T12:34:31;23.70;;;21.40;;
3405;SDS011;10008;48.682;9.016;2023-02-28T12:37:00;24.80;;;22.40;;
3405;SDS011;10008;48.682;9.016;2023-02-28T12:39:34;24.90;;;22.40;;
3405;SDS011;10008;48.682;9.016;2023-02-28T12:45:01;24.80;;;22.50;;
3405;SDS011;10008;48.682;9.016;2023-02-28T12:47:32;23.57;;;21.27;;
3405;SDS011;10008;48.682;9.016;2023-02-28T12:50:08;23.47;;;21.27;;
3405;SDS011;10008;48.682;9.016;2023-02-28T12:52:54;23.20;;;21.03;;
3405;SDS011;10008;48.682;9.016;2023-02-28T12:55:31;23.60;;;21.20;;
3405;SDS011;10008;48.682;9.016;2023-02-28T13:04:13;23.03;;;20.73;;
3405;SDS011;10008;48.682;9.016;2023-02-28T13:06:45;23.13;;;21.03;;
3405;SDS011;10008;48.682;9.016;2023-02-28T13:09:37;22.13;;;20.13;;
3405;SDS011;10008;48.682;9.016;2023-02-28T13:12:14;23.25;;;21.08;;
3405;SDS011;10008;48.682;9.016;2023-02-28T13:14:41;22.90;;;20.80;;
3405;SDS011;10008;48.682;9.016;2023-02-28T13:19:46;23.40;;;21.20;;
3405;SDS011;10008;48.682;9.016;2023-02-28T13:22:38;23.40;;;21.30;;
3405;SDS011;10008;48.682;9.016;2023-02-28T13:27:47;23.83;;;21.47;;
3405;SDS011;10008;48.682;9.016;2023-02-28T13:38:48;24.67;;;22.27;;
3405;SDS011;10008;48.682;9.016;2023-02-28T13:42:03;25.30;;;22.70;;
3405;SDS011;10008;48.682;9.016;2023-02-28T13:46:34;24.13;;;21.93;;
3405;SDS011;10008;48.682;9.016;2023-02-28T13:49:26;24.10;;;21.73;;
3405;SDS011;10008;48.682;9.016;2023-02-28T13:52:02;25.53;;;23.20;;
3405;SDS011;10008;48.682;9.016;2023-02-28T13:59:48;23.87;;;21.37;;
3405;SDS011;10008;48.682;9.016;2023-02-28T14:05:20;22.63;;;20.53;;
3405;SDS011;10008;48.682;9.016;2023-02-28T14:07:52;23.67;;;21.20;;
3405;SDS011;10008;48.682;9.016;2023-02-28T14:10:23;23.33;;;21.13;;
3405;SDS011;10008;48.682;9.016;2023-02-28T14:13:00;25.37;;;22.97;;
3405;SDS011;10008;48.682;9.016;2023-02-28T14:16:02;24.27;;;21.87;;
3405;SDS011;10008;48.682;9.016;2023-02-28T14:18:37;23.60;;;21.10;;
3405;SDS011;10008;48.682;9.016;2023-02-28T14:21:19;30.43;;;25.73;;
3405;SDS011;10008;48.682;9.016;2023-02-28T14:26:56;23.67;;;21.47;;
3405;SDS011;10008;48.682;9.016;2023-02-28T14:35:20;24.10;;;21.73;;
3405;SDS011;10008;48.682;9.016;2023-02-28T14:37:47;23.13;;;20.93;;
3405;SDS011;10008;48.682;9.016;2023-02-28T14:40:20;24.13;;;21.83;;
3405;SDS011;10008;48.682;9.016;2023-02-28T14:42:56;24.07;;;21.87;;
3405;SDS011;10008;48.682;9.016;2023-02-28T14:45:24;24.50;;;22.20;;
3405;SDS011;10008;48.682;9.016;2023-02-28T14:47:52;24.20;;;21.90;;
3405;SDS011;10008;48.682;9.016;2023-02-28T14:50:21;24.00;;;21.70;;
3405;SDS011;10008;48.682;9.016;2023-02-28T14:52:58;24.03;;;21.53;;
3405;SDS011;10008;48.682;9.016;2023-02-28T14:55:28;24.97;;;22.50;;
3405;SDS011;10008;48.682;9.016;2023-02-28T14:58:19;23.23;;;21.03;;
3405;SDS011;10008;48.682;9.016;2023-02-28T15:00:51;23.23;;;21.00;;
3405;SDS011;10008;48.682;9.016;2023-02-28T15:03:29;24.67;;;22.00;;
3405;SDS011;10008;48.682;9.016;2023-02-28T15:06:04;24.47;;;22.07;;
3405;SDS011;10008;48.682;9.016;2023-02-28T15:08:31;23.90;;;21.60;;
3405;SDS011;10008;48.682;9.016;2023-02-28T15:11:34;24.48;;;22.17;;
3405;SDS011;10008;48.682;9.016;2023-02-28T15:13:53;23.90;;;21.60;;
3405;SDS011;10008;48.682;9.016;2023-02-28T15:16:24;23.60;;;21.50;;
3405;SDS011;10008;48.682;9.016;2023-02-28T15:19:04;24.37;;;21.80;;
3405;SDS011;10008;48.682;9.016;2023-02-28T15:21:53;24.87;;;22.57;;
3405;SDS011;10008;48.682;9.016;2023-02-28T15:24:38;23.60;;;21.40;;
3405;SDS011;10008;48.682;9.016;2023-02-28T15:27:12;24.20;;;21.70;;
3405;SDS011;10008;48.682;9.016;2023-02-28T15:29:54;23.20;;;20.83;;
3405;SDS011;10008;48.682;9.016;2023-02-28T15:34:47;24.63;;;22.03;;
3405;SDS011;10008;48.682;9.016;2023-02-28T15:37:33;23.90;;;21.60;;
3405;SDS011;10008;48.682;9.016;2023-02-28T15:43:12;24.03;;;21.73;;
3405;SDS011;10008;48.682;9.016;2023-02-28T15:45:59;24.40;;;22.10;;
3405;SDS011;10008;48.682;9.016;2023-02-28T15:48:27;24.90;;;22.40;;
3405;SDS011;10008;48.682;9.016;2023-02-28T15:51:09;23.53;;;21.30;;
3405;SDS011;10008;48.682;9.016;2023-02-28T15:56:30;23.07;;;20.93;;
3405;SDS011;10008;48.682;9.016;2023-02-28T15:58:59;26.30;;;22.27;;
3405;SDS011;10008;48.682;9.016;2023-02-28T16:01:33;23.70;;;21.40;;
3405;SDS011;10008;48.682;9.016;2023-02-28T16:04:04;22.57;;;20.40;;
3405;SDS011;10008;48.682;9.016;2023-02-28T16:09:00;23.43;;;21.13;;
3405;SDS011;10008;48.682;9.016;2023-02-28T16:11:26;23.13;;;21.03;;
3405;SDS011;10008;48.682;9.016;2023-02-28T16:13:52;24.53;;;22.03;;
3405;SDS011;10008;48.682;9.016;2023-02-28T16:16:20;24.30;;;21.80;;
3405;SDS011;10008;48.682;9.016;2023-02-28T16:18:48;23.77;;;21.27;;
3405;SDS011;10008;48.682;9.016;2023-02-28T16:21:13;23.60;;;21.20;;
3405;SDS011;10008;48.682;9.016;2023-02-28T16:23:39;22.80;;;20.60;;
3405;SDS011;10008;48.682;9.016;2023-02-28T16:26:05;23.30;;;21.00;;
3405;SDS011;10008;48.682;9.016;2023-02-28T16:28:35;23.10;;;20.90;;
3405;SDS011;10008;48.682;9.016;2023-02-28T16:31:04;23.80;;;21.50;;
3405;SDS011;10008;48.682;9.016;2023-02-28T16:33:31;24.57;;;21.97;;
3405;SDS011;10008;48.682;9.016;2023-02-28T16:35:58;23.53;;;21.13;;
3405;SDS011;10008;48.682;9.016;2023-02-28T16:38:25;22.57;;;20.30;;
3405;SDS011;10008;48.682;9.016;2023-02-28T16:40:51;23.37;;;20.97;;
3405;SDS011;10008;48.682;9.016;2023-02-28T16:43:22;23.43;;;20.93;;
3405;SDS011;10008;48.682;9.016;2023-02-28T16:45:56;24.27;;;21.77;;
3405;SDS011;10008;48.682;9.016;2023-02-28T16:48:23;23.23;;;21.03;;
3405;SDS011;10008;48.682;9.016;2023-02-28T16:50:50;23.23;;;20.93;;
3405;SDS011;10008;48.682;9.016;2023-02-28T16:53:16;23.90;;;21.40;;
3405;SDS011;10008;48.682;9.016;2023-02-28T16:55:42;23.63;;;21.23;;
3405;SDS011;10008;48.682;9.016;2023-02-28T16:58:10;24.07;;;21.57;;
3405;SDS011;10008;48.682;9.016;2023-02-28T17:00:39;23.67;;;21.17;;